KFOK/FOK METAR and TAF weather

Enter ICAO airport designator
Station Type Date Time Source
KFOK METAR 2020/03/31 08:53 UTC NOAA

KFOK 310853Z AUTO 04011G17KT 10SM BKN016 OVC021 04/01 A3000 RMK AO2 SLP160 T00440011 56006


Station Type Date Time Source
KFOK Decoded METAR 2020/03/31 08:53 UTC NOAA

THE GABRESKI AIRPORT, NY, United States (KFOK) 40-51N 072-37W 33M
Mar 31, 2020 - 04:53 AM EDT / 2020.03.31 0853 UTC
Wind: from the NE (040 degrees) at 13 MPH (11 KT) gusting to 20 MPH (17 KT):0
Visibility: 10 mile(s):0
Sky conditions: overcast
Temperature: 39.9 F (4.4 C)
Dew Point: 34.0 F (1.1 C)
Relative Humidity: 79%
Pressure (altimeter): 30 in. Hg (1015 hPa)
Pressure tendency: 0.02 inches (0.6 hPa) lower than three hours ago
ob: KFOK 310853Z AUTO 04011G17KT 10SM BKN016 OVC021 04/01 A3000 RMK AO2 SLP160 T00440011 56006
cycle: 9

Station Type Date Time Source
KFOK TAF UTC NOAA

Error!

Example: see airport list